createdAt,value
2022-12-23T00:01:56.251Z,38.47
2022-12-23T00:04:26.749Z,36.75
2022-12-23T00:06:56.946Z,37.50
2022-12-23T00:09:27.140Z,37.78
2022-12-23T00:12:09.577Z,37.20
2022-12-23T00:14:54.812Z,35.70
2022-12-23T00:17:25.230Z,36.65
2022-12-23T00:19:55.556Z,37.47
2022-12-23T00:22:45.947Z,38.50
2022-12-23T00:25:16.778Z,39.15
2022-12-23T00:28:01.584Z,39.53
2022-12-23T00:30:34.564Z,36.40
2022-12-23T00:33:04.820Z,38.40
2022-12-23T00:35:35.222Z,36.60
2022-12-23T00:38:05.471Z,37.83
2022-12-23T00:40:48.546Z,37.22
2022-12-23T00:43:18.732Z,35.53
2022-12-23T00:45:51.701Z,37.45
2022-12-23T00:48:34.568Z,37.13
2022-12-23T00:51:04.970Z,37.65
2022-12-23T00:53:37.419Z,34.38
2022-12-23T00:56:08.710Z,36.97
2022-12-23T00:58:38.998Z,40.28
2022-12-23T01:01:24.333Z,38.30
2022-12-23T01:04:07.125Z,39.33
2022-12-23T01:06:40.382Z,40.70
2022-12-23T01:09:10.843Z,42.25
2022-12-23T01:11:43.885Z,41.92
2022-12-23T01:14:14.059Z,40.67
2022-12-23T01:16:48.156Z,39.90
2022-12-23T01:19:19.521Z,41.88
2022-12-23T01:21:49.864Z,39.58
2022-12-23T01:24:20.109Z,42.38
2022-12-23T01:26:50.318Z,39.25
2022-12-23T01:29:20.566Z,39.90
2022-12-23T01:31:53.431Z,38.13
2022-12-23T01:34:23.767Z,38.95
2022-12-23T01:36:53.955Z,40.03
2022-12-23T01:39:24.168Z,38.97
2022-12-23T01:42:06.866Z,40.08
2022-12-23T01:44:52.686Z,40.70
2022-12-23T01:47:41.834Z,39.13
2022-12-23T01:50:17.838Z,36.05
2022-12-23T01:52:53.287Z,39.35
2022-12-23T01:55:28.116Z,37.58
2022-12-23T01:58:03.521Z,35.42
2022-12-23T02:00:47.210Z,36.13
2022-12-23T02:03:32.398Z,39.10
2022-12-23T02:06:23.835Z,38.13
2022-12-23T02:09:07.621Z,35.50
2022-12-23T02:11:50.774Z,34.90
2022-12-23T02:14:48.638Z,37.13
2022-12-23T02:17:28.000Z,35.90
2022-12-23T02:20:42.618Z,35.03
2022-12-23T02:23:49.705Z,33.08
2022-12-23T02:26:50.720Z,36.00
2022-12-23T02:29:49.314Z,31.60
2022-12-23T02:32:27.787Z,34.03
2022-12-23T02:35:06.342Z,35.50
2022-12-23T02:37:41.859Z,37.72
2022-12-23T02:40:17.441Z,37.05
2022-12-23T02:42:52.077Z,34.00
2022-12-23T02:45:29.579Z,36.65
2022-12-23T02:48:08.422Z,36.97
2022-12-23T02:50:42.089Z,37.08
2022-12-23T02:53:17.885Z,37.47
2022-12-23T02:55:56.319Z,34.92
2022-12-23T02:58:31.185Z,35.95
2022-12-23T03:01:04.190Z,35.63
2022-12-23T03:03:38.500Z,37.50
2022-12-23T03:06:20.298Z,33.47
2022-12-23T03:08:52.468Z,34.45
2022-12-23T03:11:22.952Z,34.83
2022-12-23T03:14:09.002Z,34.72
2022-12-23T03:16:51.296Z,34.78
2022-12-23T03:19:35.350Z,34.92
2022-12-23T03:22:13.626Z,35.47
2022-12-23T03:24:50.403Z,36.00
2022-12-23T03:27:29.001Z,34.63
2022-12-23T03:30:06.835Z,34.83
2022-12-23T03:32:40.757Z,36.17
2022-12-23T03:35:17.375Z,33.88
2022-12-23T03:37:51.677Z,36.85
2022-12-23T03:40:28.041Z,37.47
2022-12-23T03:43:04.063Z,35.20
2022-12-23T03:45:40.722Z,35.88
2022-12-23T03:48:17.801Z,35.22
2022-12-23T03:50:55.677Z,34.80
2022-12-23T03:53:32.579Z,36.17
2022-12-23T03:56:08.876Z,36.25
2022-12-23T03:58:42.688Z,33.88
2022-12-23T04:01:20.014Z,34.13
2022-12-23T04:04:00.433Z,32.45
2022-12-23T04:06:39.026Z,33.53
2022-12-23T04:09:12.055Z,34.40
2022-12-23T04:11:45.025Z,33.63
2022-12-23T04:14:19.985Z,30.77
2022-12-23T04:16:53.055Z,34.05
2022-12-23T04:19:23.443Z,31.43
2022-12-23T04:21:58.719Z,32.97
2022-12-23T04:24:28.936Z,35.25
2022-12-23T04:26:59.065Z,33.03
2022-12-23T04:29:29.240Z,34.50
2022-12-23T04:31:59.520Z,34.65
2022-12-23T04:34:29.888Z,34.33
2022-12-23T04:37:02.969Z,34.30
2022-12-23T04:39:33.178Z,35.40
2022-12-23T04:42:03.367Z,37.47
2022-12-23T04:44:33.530Z,36.13
2022-12-23T04:47:03.894Z,34.10
2022-12-23T04:49:35.454Z,34.28
2022-12-23T04:52:08.541Z,33.20
2022-12-23T04:54:45.515Z,34.10
2022-12-23T04:57:16.596Z,34.75
2022-12-23T04:59:47.299Z,34.75
2022-12-23T05:02:17.561Z,36.78
2022-12-23T05:04:47.779Z,34.30
2022-12-23T05:07:20.635Z,36.03
2022-12-23T05:09:54.447Z,36.20
2022-12-23T05:12:24.570Z,36.13
2022-12-23T05:14:54.800Z,36.08
2022-12-23T05:17:25.143Z,34.22
2022-12-23T05:19:59.126Z,33.70
2022-12-23T05:22:31.916Z,35.42
2022-12-23T05:25:02.042Z,34.90
2022-12-23T05:27:32.276Z,34.88
2022-12-23T05:30:09.327Z,35.15
2022-12-23T05:32:44.740Z,37.15
2022-12-23T05:35:14.923Z,32.72
2022-12-23T05:37:47.814Z,37.00
2022-12-23T05:40:24.094Z,39.88
2022-12-23T05:43:00.007Z,40.63
2022-12-23T05:45:30.364Z,37.73
2022-12-23T05:48:03.514Z,37.28
2022-12-23T05:50:33.880Z,36.97
2022-12-23T05:53:06.843Z,39.13
2022-12-23T05:55:37.695Z,37.30
2022-12-23T05:58:08.021Z,38.15
2022-12-23T06:00:43.549Z,38.50
2022-12-23T06:03:14.074Z,36.95
2022-12-23T06:05:44.348Z,36.00
2022-12-23T06:08:17.087Z,38.28
2022-12-23T06:10:47.436Z,38.53
2022-12-23T06:13:17.770Z,41.05
2022-12-23T06:15:54.335Z,37.80
2022-12-23T06:18:24.551Z,36.92
2022-12-23T06:20:55.278Z,40.22
2022-12-23T06:23:28.031Z,35.58
2022-12-23T06:26:03.243Z,38.58
2022-12-23T06:28:34.518Z,37.55
2022-12-23T06:31:04.670Z,38.05
2022-12-23T06:33:34.888Z,40.92
2022-12-23T06:36:05.183Z,40.55
2022-12-23T06:38:38.051Z,38.67
2022-12-23T06:41:08.773Z,41.70
2022-12-23T06:43:38.945Z,39.40
2022-12-23T06:46:09.192Z,39.70
2022-12-23T06:48:42.276Z,41.95
2022-12-23T06:51:13.286Z,42.60
2022-12-23T06:53:46.209Z,43.38
2022-12-23T06:56:16.488Z,39.92
2022-12-23T06:58:47.176Z,40.10
2022-12-23T07:01:17.525Z,43.50
2022-12-23T07:03:50.262Z,44.72
2022-12-23T07:06:20.477Z,41.13
2022-12-23T07:08:53.634Z,41.70
2022-12-23T07:11:23.793Z,40.20
2022-12-23T07:13:54.152Z,42.55
2022-12-23T07:16:24.354Z,42.25
2022-12-23T07:18:54.675Z,40.35
2022-12-23T07:21:29.372Z,42.88
2022-12-23T07:24:02.693Z,39.80
2022-12-23T07:26:32.842Z,41.47
2022-12-23T07:29:04.403Z,44.33
2022-12-23T07:31:37.126Z,44.40
2022-12-23T07:34:11.220Z,45.25
2022-12-23T07:36:41.394Z,48.83
2022-12-23T07:39:14.272Z,43.78
2022-12-23T07:41:44.486Z,46.25
2022-12-23T07:44:14.750Z,44.13
2022-12-23T07:46:45.232Z,43.63
2022-12-23T07:49:15.590Z,44.22
2022-12-23T07:51:45.763Z,44.63
2022-12-23T07:54:18.637Z,43.22
2022-12-23T07:56:48.851Z,43.90
2022-12-23T07:59:19.274Z,43.40
2022-12-23T08:01:49.901Z,44.83
2022-12-23T08:04:20.727Z,44.33
2022-12-23T08:06:50.969Z,43.33
2022-12-23T08:09:24.104Z,41.13
2022-12-23T08:11:54.514Z,40.70
2022-12-23T08:14:24.653Z,42.80
2022-12-23T08:16:54.907Z,41.22
2022-12-23T08:19:25.114Z,41.60
2022-12-23T08:21:55.545Z,44.85
2022-12-23T08:24:28.328Z,43.72
2022-12-23T08:26:58.549Z,42.38
2022-12-23T08:29:35.781Z,43.30
2022-12-23T08:32:07.188Z,41.95
2022-12-23T08:34:37.843Z,39.28
2022-12-23T08:37:07.997Z,39.72
2022-12-23T08:39:42.422Z,35.30
2022-12-23T08:42:12.601Z,36.13
2022-12-23T08:44:42.958Z,43.72
2022-12-23T08:47:13.152Z,36.65
2022-12-23T08:49:47.060Z,39.05
2022-12-23T08:52:17.732Z,36.00
2022-12-23T08:54:51.204Z,39.65
2022-12-23T08:57:21.429Z,37.00
2022-12-23T08:59:51.929Z,37.17
2022-12-23T09:02:22.308Z,29.23
2022-12-23T09:04:52.705Z,23.88
2022-12-23T09:07:22.941Z,30.88
2022-12-23T09:09:58.610Z,37.95
2022-12-23T09:12:32.003Z,34.78
2022-12-23T09:15:02.404Z,33.47
2022-12-23T09:17:33.562Z,31.45
2022-12-23T09:20:05.188Z,30.75
2022-12-23T09:22:36.144Z,38.40
2022-12-23T09:25:10.135Z,27.98
2022-12-23T09:27:44.071Z,33.40
2022-12-23T09:30:15.845Z,31.25
2022-12-23T09:32:46.086Z,29.13
2022-12-23T09:35:16.416Z,30.50
2022-12-23T09:37:46.675Z,33.30
2022-12-23T09:40:22.593Z,35.35
2022-12-23T09:43:01.953Z,34.30
2022-12-23T09:45:47.411Z,35.58
2022-12-23T09:48:22.379Z,31.67
2022-12-23T09:50:52.592Z,33.58
2022-12-23T09:53:24.710Z,32.42
2022-12-23T09:56:05.189Z,36.50
2022-12-23T09:58:45.845Z,33.95
2022-12-23T10:01:22.452Z,32.17
2022-12-23T10:04:26.686Z,31.90
2022-12-23T10:07:06.617Z,33.17
2022-12-23T10:09:41.063Z,33.13
2022-12-23T10:12:27.755Z,34.38
2022-12-23T10:15:04.411Z,26.15
2022-12-23T10:17:40.227Z,27.48
2022-12-23T10:20:21.046Z,29.27
2022-12-23T10:22:51.497Z,28.00
2022-12-23T10:25:31.275Z,25.80
2022-12-23T10:28:04.300Z,31.42
2022-12-23T10:31:05.624Z,28.85
2022-12-23T10:33:40.354Z,20.67
2022-12-23T10:36:15.836Z,29.33
2022-12-23T10:38:57.313Z,30.02
2022-12-23T10:41:40.910Z,30.15
2022-12-23T10:44:39.560Z,23.95
2022-12-23T10:47:18.587Z,31.17
2022-12-23T10:50:02.489Z,26.00
2022-12-23T10:52:37.484Z,31.27
2022-12-23T10:55:08.774Z,27.33
2022-12-23T10:57:39.187Z,30.05
2022-12-23T11:00:21.287Z,31.23
2022-12-23T11:03:04.680Z,29.40
2022-12-23T11:05:37.320Z,29.42
2022-12-23T11:08:08.400Z,30.17
2022-12-23T11:10:39.699Z,28.42
2022-12-23T11:13:10.046Z,26.38
2022-12-23T11:15:44.191Z,30.02
2022-12-23T11:18:21.202Z,27.35
2022-12-23T11:21:06.105Z,29.98
2022-12-23T11:23:38.831Z,30.08
2022-12-23T11:26:12.365Z,24.10
2022-12-23T11:28:50.485Z,29.52
2022-12-23T11:31:32.662Z,27.88
2022-12-23T11:34:07.775Z,31.65
2022-12-23T11:36:38.528Z,29.13
2022-12-23T11:39:27.271Z,33.17
2022-12-23T11:42:07.859Z,32.70
2022-12-23T11:44:44.387Z,30.77
2022-12-23T11:47:29.449Z,31.33
2022-12-23T11:50:03.167Z,25.30
2022-12-23T11:52:35.445Z,28.00
2022-12-23T11:55:09.256Z,31.10
2022-12-23T11:57:45.455Z,34.10
2022-12-23T12:00:23.642Z,25.35
2022-12-23T12:02:58.081Z,32.95
2022-12-23T12:05:34.375Z,30.83
2022-12-23T12:08:08.683Z,31.30
2022-12-23T12:10:42.418Z,31.92
2022-12-23T12:13:27.023Z,32.05
2022-12-23T12:16:06.624Z,32.28
2022-12-23T12:18:42.128Z,31.48
2022-12-23T12:21:17.263Z,29.30
2022-12-23T12:24:08.319Z,32.65
2022-12-23T12:26:43.600Z,30.80
2022-12-23T12:29:21.491Z,29.67
2022-12-23T12:31:54.293Z,26.75
2022-12-23T12:34:52.534Z,26.50
2022-12-23T12:37:31.356Z,30.50
2022-12-23T12:40:04.296Z,28.38
2022-12-23T12:42:40.698Z,26.35
2022-12-23T12:45:19.769Z,27.33
2022-12-23T12:48:13.082Z,26.83
2022-12-23T12:50:58.163Z,24.65
2022-12-23T12:53:31.134Z,28.25
2022-12-23T12:56:09.603Z,25.88
2022-12-23T12:58:40.679Z,29.02
2022-12-23T13:01:28.125Z,26.95
2022-12-23T13:04:28.968Z,26.70
2022-12-23T13:07:12.515Z,28.67
2022-12-23T13:09:57.336Z,25.92
2022-12-23T13:12:41.442Z,24.80
2022-12-23T13:15:23.252Z,24.20
2022-12-23T13:18:10.088Z,28.15
2022-12-23T13:20:47.464Z,29.50
2022-12-23T13:23:45.480Z,26.13
2022-12-23T13:26:30.072Z,28.30
2022-12-23T13:29:20.349Z,27.23
2022-12-23T13:31:58.042Z,26.63
2022-12-23T13:34:42.235Z,26.35
2022-12-23T13:37:31.821Z,25.00
2022-12-23T13:40:22.699Z,27.85
2022-12-23T13:42:58.699Z,27.92
2022-12-23T13:45:36.332Z,30.23
2022-12-23T13:48:24.680Z,28.17
2022-12-23T13:51:02.837Z,27.20
2022-12-23T13:53:50.258Z,26.67
2022-12-23T13:56:30.110Z,31.73
2022-12-23T13:59:01.018Z,27.98
2022-12-23T14:01:38.787Z,30.40
2022-12-23T14:04:39.562Z,27.40
2022-12-23T14:07:22.459Z,27.90
2022-12-23T14:09:56.160Z,25.00
2022-12-23T14:12:32.151Z,26.38
2022-12-23T14:15:35.420Z,24.42
2022-12-23T14:18:22.086Z,24.55
2022-12-23T14:21:05.161Z,25.48
2022-12-23T14:23:50.219Z,25.13
2022-12-23T14:26:36.181Z,24.08
2022-12-23T14:29:31.172Z,23.13
2022-12-23T14:32:01.846Z,28.25
2022-12-23T14:34:34.453Z,25.40
2022-12-23T14:37:36.212Z,25.85
2022-12-23T14:40:41.246Z,25.15
2022-12-23T14:43:34.100Z,25.92
2022-12-23T14:46:08.586Z,24.52
2022-12-23T14:49:38.473Z,26.20
2022-12-23T14:52:44.302Z,23.92
2022-12-23T14:55:45.367Z,23.45
2022-12-23T14:58:48.261Z,24.73
2022-12-23T15:01:24.487Z,21.67
2022-12-23T15:04:01.342Z,22.58
2022-12-23T15:06:38.341Z,23.48
2022-12-23T15:09:10.347Z,22.98
2022-12-23T15:11:43.740Z,23.55
2022-12-23T15:14:22.901Z,23.73
2022-12-23T15:16:55.884Z,24.10
2022-12-23T15:19:28.957Z,23.67
2022-12-23T15:22:22.272Z,23.48
2022-12-23T15:24:56.073Z,22.90
2022-12-23T15:27:28.750Z,23.08
2022-12-23T15:32:33.661Z,21.23
2022-12-23T15:35:07.998Z,20.37
2022-12-23T15:37:38.393Z,22.17
2022-12-23T15:40:25.219Z,23.65
2022-12-23T15:42:55.964Z,20.42
2022-12-23T15:45:41.700Z,21.50
2022-12-23T15:48:27.104Z,21.58
2022-12-23T15:51:01.100Z,21.50
2022-12-23T15:56:09.789Z,20.30
2022-12-23T15:58:45.381Z,19.75
2022-12-23T16:01:18.459Z,20.05
2022-12-23T16:03:57.608Z,20.83
2022-12-23T16:06:32.085Z,21.60
2022-12-23T16:09:04.109Z,20.52
2022-12-23T16:11:45.136Z,20.33
2022-12-23T16:14:36.351Z,19.83
2022-12-23T16:17:18.677Z,20.65
2022-12-23T16:19:53.727Z,22.08
2022-12-23T16:22:30.869Z,18.85
2022-12-23T16:25:13.566Z,18.95
2022-12-23T16:27:46.232Z,21.13
2022-12-23T16:30:20.278Z,20.67
2022-12-23T16:32:54.873Z,20.33
2022-12-23T16:35:40.272Z,21.00
2022-12-23T16:38:21.621Z,18.52
2022-12-23T16:40:53.696Z,19.55
2022-12-23T16:43:26.187Z,18.77
2022-12-23T16:45:59.300Z,18.60
2022-12-23T16:48:34.542Z,17.83
2022-12-23T16:51:14.471Z,17.33
2022-12-23T16:53:44.747Z,24.50
2022-12-23T16:56:15.849Z,23.35
2022-12-23T16:58:49.716Z,25.17
2022-12-23T17:01:25.016Z,24.75
2022-12-23T17:03:56.070Z,22.60
2022-12-23T17:06:29.720Z,23.88
2022-12-23T17:09:03.018Z,20.65
2022-12-23T17:11:40.790Z,25.67
2022-12-23T17:14:17.914Z,23.45
2022-12-23T17:16:48.927Z,26.23
2022-12-23T17:19:28.002Z,32.63
2022-12-23T17:22:05.875Z,33.47
2022-12-23T17:24:36.222Z,29.90
2022-12-23T17:27:16.059Z,30.63
2022-12-23T17:29:47.322Z,27.77
2022-12-23T17:32:21.481Z,27.88
2022-12-23T17:34:51.706Z,28.00
2022-12-23T17:37:25.978Z,24.00
2022-12-23T17:39:56.518Z,22.85
2022-12-23T17:42:27.005Z,23.27
2022-12-23T17:44:57.307Z,22.58
2022-12-23T17:47:27.752Z,23.25
2022-12-23T17:50:01.066Z,22.45
2022-12-23T17:52:33.986Z,23.13
2022-12-23T17:55:04.232Z,22.15
2022-12-23T17:57:34.503Z,22.27
2022-12-23T18:00:07.755Z,22.58
2022-12-23T18:02:38.372Z,27.13
2022-12-23T18:05:22.720Z,29.65
2022-12-23T18:07:56.593Z,27.83
2022-12-23T18:13:04.797Z,28.15
2022-12-23T18:15:38.827Z,26.38
2022-12-23T18:18:27.307Z,27.80
2022-12-23T18:21:10.399Z,24.63
2022-12-23T18:23:43.300Z,27.23
2022-12-23T18:26:16.618Z,27.63
2022-12-23T18:28:47.357Z,26.90
2022-12-23T18:31:20.482Z,24.83
2022-12-23T18:33:51.166Z,27.73
2022-12-23T18:36:27.955Z,24.40
2022-12-23T18:39:00.935Z,23.77
2022-12-23T18:41:31.233Z,23.60
2022-12-23T18:44:01.509Z,21.98
2022-12-23T18:46:31.877Z,20.27
2022-12-23T18:49:02.307Z,18.73
2022-12-23T18:51:32.592Z,20.65
2022-12-23T18:54:05.500Z,20.25
2022-12-23T18:56:35.706Z,19.50
2022-12-23T18:59:06.047Z,19.42
2022-12-23T19:01:36.441Z,20.85
2022-12-23T19:04:06.824Z,23.23
2022-12-23T19:06:40.487Z,18.65
2022-12-23T19:09:18.581Z,28.05
2022-12-23T19:11:51.244Z,31.45
2022-12-23T19:14:21.439Z,30.02
2022-12-23T19:16:52.702Z,21.90
2022-12-23T19:19:24.072Z,21.38
2022-12-23T19:21:54.544Z,16.08
2022-12-23T19:24:27.458Z,18.67
2022-12-23T19:26:57.676Z,20.40
2022-12-23T19:29:27.944Z,18.45
2022-12-23T19:31:58.377Z,18.13
2022-12-23T19:34:28.682Z,16.25
2022-12-23T19:36:58.990Z,15.70
2022-12-23T19:39:34.463Z,17.65
2022-12-23T19:42:04.797Z,15.20
2022-12-23T19:44:35.115Z,15.98
2022-12-23T19:47:05.781Z,17.02
2022-12-23T19:49:37.172Z,15.38
2022-12-23T19:52:08.236Z,16.42
2022-12-23T19:54:41.032Z,16.58
2022-12-23T19:57:11.334Z,15.80
2022-12-23T19:59:41.580Z,15.10
2022-12-23T20:02:16.838Z,16.38
2022-12-23T20:04:47.379Z,16.05
2022-12-23T20:07:19.948Z,15.60
2022-12-23T20:09:54.258Z,15.20
2022-12-23T20:12:26.582Z,17.23
2022-12-23T20:14:59.530Z,18.95
2022-12-23T20:17:29.809Z,18.63
2022-12-23T20:20:01.287Z,18.02
2022-12-23T20:22:31.638Z,15.32
2022-12-23T20:25:04.489Z,15.50
2022-12-23T20:27:35.574Z,17.50
2022-12-23T20:30:13.631Z,16.83
2022-12-23T20:32:44.404Z,17.02
2022-12-23T20:35:14.661Z,18.10
2022-12-23T20:37:44.823Z,20.05
2022-12-23T20:40:19.431Z,18.65
2022-12-23T20:42:49.687Z,20.30
2022-12-23T20:45:21.506Z,18.80
2022-12-23T20:47:54.262Z,21.40
2022-12-23T20:50:27.134Z,19.25
2022-12-23T20:52:57.309Z,21.70
2022-12-23T20:55:30.295Z,18.70
2022-12-23T20:58:20.703Z,19.88
2022-12-23T21:00:51.253Z,18.08
2022-12-23T21:03:21.574Z,17.60
2022-12-23T21:05:51.783Z,20.85
2022-12-23T21:08:22.090Z,16.02
2022-12-23T21:10:58.543Z,15.73
2022-12-23T21:13:28.766Z,16.85
2022-12-23T21:16:03.727Z,17.42
2022-12-23T21:18:34.098Z,17.08
2022-12-23T21:21:05.812Z,17.08
2022-12-23T21:23:39.981Z,20.13
2022-12-23T21:26:15.675Z,18.15
2022-12-23T21:28:48.584Z,17.42
2022-12-23T21:31:21.733Z,16.33
2022-12-23T21:33:53.366Z,17.13
2022-12-23T21:36:25.129Z,17.17
2022-12-23T21:38:56.333Z,18.35
2022-12-23T21:41:31.374Z,18.00
2022-12-23T21:44:02.931Z,17.58
2022-12-23T21:46:33.268Z,17.45
2022-12-23T21:49:03.720Z,17.73
2022-12-23T21:51:40.197Z,17.25
2022-12-23T21:54:12.072Z,15.07
2022-12-23T21:56:44.822Z,15.48
2022-12-23T21:59:16.830Z,16.08
2022-12-23T22:01:47.183Z,16.27
2022-12-23T22:04:17.479Z,15.38
2022-12-23T22:06:48.518Z,17.27
2022-12-23T22:09:20.725Z,17.35
2022-12-23T22:11:53.628Z,16.27
2022-12-23T22:14:23.890Z,17.95
2022-12-23T22:16:54.207Z,17.92
2022-12-23T22:19:24.532Z,16.38
2022-12-23T22:21:54.892Z,16.52
2022-12-23T22:24:25.216Z,17.85
2022-12-23T22:26:57.986Z,19.92
2022-12-23T22:29:29.133Z,19.80
2022-12-23T22:31:59.489Z,17.55
2022-12-23T22:34:29.813Z,17.35
2022-12-23T22:37:00.146Z,17.45
2022-12-23T22:39:30.407Z,16.27
2022-12-23T22:42:03.280Z,17.20
2022-12-23T22:44:33.451Z,18.73
2022-12-23T22:47:03.779Z,16.95
2022-12-23T22:49:33.975Z,18.73
2022-12-23T22:52:04.231Z,17.63
2022-12-23T22:54:34.582Z,17.55
2022-12-23T22:57:07.578Z,15.77
2022-12-23T22:59:41.407Z,18.38
2022-12-23T23:02:11.745Z,19.15
2022-12-23T23:04:42.381Z,19.83
2022-12-23T23:07:12.659Z,17.75
2022-12-23T23:09:43.719Z,18.77
2022-12-23T23:12:16.875Z,18.98
2022-12-23T23:14:56.158Z,19.30
2022-12-23T23:17:28.440Z,17.55
2022-12-23T23:19:58.949Z,16.38
2022-12-23T23:22:29.290Z,18.05
2022-12-23T23:24:59.708Z,18.33
2022-12-23T23:27:32.496Z,19.65
2022-12-23T23:30:07.878Z,17.77
2022-12-23T23:32:38.460Z,16.13
2022-12-23T23:35:11.827Z,17.60
2022-12-23T23:37:42.168Z,16.67
2022-12-23T23:40:13.904Z,18.30
2022-12-23T23:42:46.862Z,15.90
2022-12-23T23:45:17.383Z,15.93
2022-12-23T23:47:47.663Z,15.90
2022-12-23T23:50:18.245Z,16.63
2022-12-23T23:52:48.663Z,16.90
2022-12-23T23:55:19.066Z,17.20
2022-12-23T23:57:51.809Z,18.58
